Time,TemperatureF,DewpointF,PressureIn,WindDirection,WindDirectionDegrees,WindSpeedMPH,WindSpeedGustMPH,Humidity,HourlyPrecipIn,Conditions,Clouds,dailyrainin,SoftwareType,DateUTC
2013-01-09 00:05:00,46.2,38.4,30.36,NNE,28,0.0,0.0,74,0.00,CLR,OVC,0.00,WeatherDisplay:10.37,2013-01-09 05:05:00,
2013-01-09 00:10:00,46.0,38.2,30.36,NNE,28,0.0,0.0,74,0.00,CLR,OVC,0.00,WeatherDisplay:10.37,2013-01-09 05:10:00,
2013-01-09 00:15:00,45.9,38.1,30.36,NNE,28,0.0,0.0,74,0.00,CLR,OVC,0.00,WeatherDisplay:10.37,2013-01-09 05:15:00,
2013-01-09 00:20:00,45.9,38.0,30.36,NNE,28,0.0,0.0,74,0.00,CLR,OVC,0.00,WeatherDisplay:10.37,2013-01-09 05:20:00,
2013-01-09 00:25:00,45.5,37.7,30.36,NNE,28,0.0,0.0,74,0.00,CLR,OVC,0.00,WeatherDisplay:10.37,2013-01-09 05:25:00,
2013-01-09 00:30:00,45.3,37.5,30.36,NNE,28,0.0,0.0,74,0.00,CLR,OVC,0.00,WeatherDisplay:10.37,2013-01-09 05:30:00,
2013-01-09 00:40:00,45.0,37.5,30.36,NNE,28,0.0,0.0,75,0.00,CLR,OVC,0.00,WeatherDisplay:10.37,2013-01-09 05:40:00,
2013-01-09 00:50:00,44.6,37.5,30.36,NNE,28,0.0,0.0,76,0.00,CLR,OVC,0.00,WeatherDisplay:10.37,2013-01-09 05:50:00,
2013-01-09 00:55:00,44.4,37.3,30.36,NNE,28,0.0,0.0,76,0.00,CLR,OVC,0.00,WeatherDisplay:10.37,2013-01-09 05:55:00,
2013-01-09 01:00:00,44.4,37.3,30.36,NNE,28,0.0,0.0,76,0.00,CLR,OVC,0.00,WeatherDisplay:10.37,2013-01-09 06:00:00,
2013-01-09 01:05:00,44.2,37.2,30.36,NNE,28,0.0,0.0,76,0.00,CLR,OVC,0.00,WeatherDisplay:10.37,2013-01-09 06:05:00,
2013-01-09 01:10:00,44.1,37.0,30.36,NNE,28,0.0,0.0,76,0.00,CLR,OVC,0.00,WeatherDisplay:10.37,2013-01-09 06:10:00,
2013-01-09 01:15:00,43.9,36.8,30.36,NNE,28,0.0,0.0,76,0.00,CLR,OVC,0.00,WeatherDisplay:10.37,2013-01-09 06:15:00,
2013-01-09 01:20:00,43.7,36.6,30.36,NNE,28,0.0,0.0,76,0.00,CLR,OVC,0.00,WeatherDisplay:10.37,2013-01-09 06:20:00,
2013-01-09 01:25:00,43.5,36.5,30.36,NNE,28,0.0,0.0,76,0.00,CLR,OVC,0.00,WeatherDisplay:10.37,2013-01-09 06:25:00,
2013-01-09 01:30:00,43.2,36.2,30.36,NNE,28,0.0,0.0,76,0.00,CLR,OVC,0.00,WeatherDisplay:10.37,2013-01-09 06:30:00,
2013-01-09 01:40:00,42.6,35.6,30.36,NNE,28,0.0,0.0,76,0.00,CLR,OVC,0.00,WeatherDisplay:10.37,2013-01-09 06:40:00,
2013-01-09 01:45:00,42.4,35.4,30.36,NNE,28,0.0,0.0,76,0.00,CLR,OVC,0.00,WeatherDisplay:10.37,2013-01-09 06:45:00,
2013-01-09 01:50:00,42.3,35.6,30.36,NNE,17,0.0,0.0,77,0.00,CLR,OVC,0.00,WeatherDisplay:10.37,2013-01-09 06:50:00,
2013-01-09 01:55:00,42.0,35.3,30.36,NNW,347,0.0,0.0,77,0.00,CLR,OVC,0.00,WeatherDisplay:10.37,2013-01-09 06:55:00,
2013-01-09 02:00:00,41.9,35.2,30.36,NNW,335,0.0,0.0,77,0.00,CLR,OVC,0.00,WeatherDisplay:10.37,2013-01-09 07:00:00,
2013-01-09 02:05:00,41.9,35.2,30.36,NNW,337,0.0,0.0,77,0.00,CLR,OVC,0.00,WeatherDisplay:10.37,2013-01-09 07:05:00,
2013-01-09 02:10:00,41.7,35.4,30.36,NNW,337,0.0,0.0,78,0.00,CLR,OVC,0.00,WeatherDisplay:10.37,2013-01-09 07:10:00,
2013-01-09 02:15:00,41.7,35.4,30.36,NNW,337,0.0,0.0,78,0.00,CLR,OVC,0.00,WeatherDisplay:10.37,2013-01-09 07:15:00,
2013-01-09 02:20:00,41.7,35.4,30.36,North,351,0.0,0.0,78,0.00,CLR,OVC,0.00,WeatherDisplay:10.37,2013-01-09 07:20:00,
2013-01-09 02:25:00,41.5,35.5,30.36,ENE,70,0.0,0.0,79,0.00,CLR,OVC,0.00,WeatherDisplay:10.37,2013-01-09 07:25:00,
2013-01-09 02:30:00,41.4,35.4,30.36,East,92,0.0,0.0,79,0.00,CLR,OVC,0.00,WeatherDisplay:10.37,2013-01-09 07:30:00,
2013-01-09 02:40:00,41.2,35.2,30.36,NNW,339,0.0,0.0,79,0.00,CLR,OVC,0.00,WeatherDisplay:10.37,2013-01-09 07:40:00,
2013-01-09 02:45:00,41.2,35.5,30.36,NNW,339,0.0,0.0,80,0.00,CLR,OVC,0.00,WeatherDisplay:10.37,2013-01-09 07:45:00,
2013-01-09 02:50:00,41.0,35.3,30.39,NNW,339,0.0,0.0,80,0.00,CLR,OVC,0.00,WeatherDisplay:10.37,2013-01-09 07:50:00,
2013-01-09 03:00:00,40.6,35.0,30.39,West,268,0.0,0.0,80,0.00,CLR,OVC,0.00,WeatherDisplay:10.37,2013-01-09 08:00:00,
2013-01-09 03:05:00,40.6,35.0,30.39,West,259,0.0,0.0,80,0.00,CLR,OVC,0.00,WeatherDisplay:10.37,2013-01-09 08:05:00,
2013-01-09 03:10:00,40.6,35.0,30.39,West,259,0.0,0.0,80,0.00,CLR,OVC,0.00,WeatherDisplay:10.37,2013-01-09 08:10:00,
2013-01-09 03:15:00,40.5,34.8,30.39,West,259,0.0,0.0,80,0.00,CLR,OVC,0.00,WeatherDisplay:10.37,2013-01-09 08:15:00,
2013-01-09 03:20:00,40.5,34.8,30.36,West,259,0.0,0.0,80,0.00,CLR,OVC,0.00,WeatherDisplay:10.37,2013-01-09 08:20:00,
2013-01-09 03:30:00,40.3,34.9,30.36,West,259,0.0,0.0,81,0.00,CLR,OVC,0.00,WeatherDisplay:10.37,2013-01-09 08:30:00,
2013-01-09 03:40:00,40.1,34.7,30.36,West,259,0.0,0.0,81,0.00,CLR,OVC,0.00,WeatherDisplay:10.37,2013-01-09 08:40:00,
2013-01-09 03:50:00,39.9,34.6,30.36,West,259,0.0,0.0,81,0.00,CLR,OVC,0.00,WeatherDisplay:10.37,2013-01-09 08:50:00,
2013-01-09 03:55:00,39.9,34.6,30.36,West,259,0.0,0.0,81,0.00,CLR,OVC,0.00,WeatherDisplay:10.37,2013-01-09 08:55:00,
2013-01-09 04:00:00,39.6,34.5,30.36,West,259,0.0,0.0,82,0.00,CLR,OVC,0.00,WeatherDisplay:10.37,2013-01-09 09:00:00,
2013-01-09 04:05:00,39.4,34.3,30.36,West,259,0.0,0.0,82,0.00,CLR,OVC,0.00,WeatherDisplay:10.37,2013-01-09 09:05:00,
2013-01-09 04:10:00,39.2,34.2,30.36,West,259,0.0,0.0,82,0.00,CLR,OVC,0.00,WeatherDisplay:10.37,2013-01-09 09:10:00,
2013-01-09 04:20:00,39.0,34.0,30.36,West,259,0.0,0.0,82,0.00,CLR,OVC,0.00,WeatherDisplay:10.37,2013-01-09 09:20:00,
2013-01-09 04:25:00,39.0,34.0,30.36,West,259,0.0,0.0,82,0.00,CLR,OVC,0.00,WeatherDisplay:10.37,2013-01-09 09:25:00,
2013-01-09 04:30:00,38.8,33.8,30.36,West,259,0.0,0.0,82,0.00,CLR,OVC,0.00,WeatherDisplay:10.37,2013-01-09 09:30:00,
2013-01-09 04:40:00,38.8,34.1,30.36,West,259,0.0,0.0,83,0.00,CLR,OVC,0.00,WeatherDisplay:10.37,2013-01-09 09:40:00,
2013-01-09 04:45:00,38.7,33.9,30.36,West,259,0.0,0.0,83,0.00,CLR,OVC,0.00,WeatherDisplay:10.37,2013-01-09 09:45:00,
2013-01-09 04:50:00,38.5,33.8,30.36,West,259,0.0,0.0,83,0.00,CLR,OVC,0.00,WeatherDisplay:10.37,2013-01-09 09:50:00,
2013-01-09 05:00:00,38.2,33.5,30.36,West,259,0.0,0.0,83,0.00,CLR,OVC,0.00,WeatherDisplay:10.37,2013-01-09 10:00:00,
2013-01-09 05:05:00,38.1,33.4,30.36,West,259,0.0,0.0,83,0.00,CLR,OVC,0.00,WeatherDisplay:10.37,2013-01-09 10:05:00,
2013-01-09 05:10:00,38.1,33.4,30.36,West,259,0.0,0.0,83,0.00,CLR,OVC,0.00,WeatherDisplay:10.37,2013-01-09 10:10:00,
2013-01-09 05:20:00,37.9,33.5,30.36,West,259,0.0,0.0,84,0.00,CLR,OVC,0.00,WeatherDisplay:10.37,2013-01-09 10:20:00,
2013-01-09 05:25:00,37.9,33.5,30.36,West,259,0.0,0.0,84,0.00,CLR,OVC,0.00,WeatherDisplay:10.37,2013-01-09 10:25:00,
2013-01-09 05:30:00,37.9,33.5,30.36,West,259,0.0,0.0,84,0.00,CLR,OVC,0.00,WeatherDisplay:10.37,2013-01-09 10:30:00,
2013-01-09 05:40:00,37.8,33.4,30.36,West,259,0.0,0.0,84,0.00,CLR,OVC,0.00,WeatherDisplay:10.37,2013-01-09 10:40:00,
2013-01-09 05:45:00,37.6,33.2,30.36,West,259,0.0,0.0,84,0.00,CLR,OVC,0.00,WeatherDisplay:10.37,2013-01-09 10:45:00,
2013-01-09 05:50:00,37.4,33.0,30.36,West,259,0.0,0.0,84,0.00,CLR,OVC,0.00,WeatherDisplay:10.37,2013-01-09 10:50:00,
2013-01-09 06:00:00,37.4,33.0,30.36,West,259,0.0,0.0,84,0.00,CLR,OVC,0.00,WeatherDisplay:10.37,2013-01-09 11:00:00,
2013-01-09 06:05:00,37.2,32.8,30.36,West,259,0.0,0.0,84,0.00,CLR,OVC,0.00,WeatherDisplay:10.37,2013-01-09 11:05:00,
2013-01-09 06:10:00,37.0,32.7,30.36,West,259,0.0,0.0,84,0.00,CLR,OVC,0.00,WeatherDisplay:10.37,2013-01-09 11:10:00,
2013-01-09 06:15:00,37.0,32.7,30.36,West,259,0.0,0.0,84,0.00,CLR,OVC,0.00,WeatherDisplay:10.37,2013-01-09 11:15:00,
2013-01-09 06:20:00,37.0,32.7,30.36,West,259,0.0,0.0,84,0.00,CLR,OVC,0.00,WeatherDisplay:10.37,2013-01-09 11:20:00,
2013-01-09 06:30:00,37.0,32.7,30.36,West,259,0.0,0.0,84,0.00,CLR,OVC,0.00,WeatherDisplay:10.37,2013-01-09 11:30:00,
2013-01-09 06:40:00,36.9,32.5,30.36,West,259,0.0,0.0,84,0.00,CLR,OVC,0.00,WeatherDisplay:10.37,2013-01-09 11:40:00,
2013-01-09 06:45:00,36.9,32.5,30.36,West,259,0.0,0.0,84,0.00,CLR,OVC,0.00,WeatherDisplay:10.37,2013-01-09 11:45:00,
2013-01-09 06:50:00,36.7,32.3,30.39,West,259,0.0,0.0,84,0.00,CLR,OVC,0.00,WeatherDisplay:10.37,2013-01-09 11:50:00,
2013-01-09 06:55:00,36.7,32.6,30.39,West,259,0.0,0.0,85,0.00,CLR,OVC,0.00,WeatherDisplay:10.37,2013-01-09 11:55:00,
2013-01-09 07:05:00,36.7,32.6,30.39,West,259,0.0,0.0,85,0.00,CLR,OVC,0.00,WeatherDisplay:10.37,2013-01-09 12:05:00,
2013-01-09 07:10:00,36.7,32.6,30.39,West,259,0.0,0.0,85,0.00,CLR,OVC,0.00,WeatherDisplay:10.37,2013-01-09 12:10:00,
2013-01-09 07:15:00,36.5,32.4,30.39,West,259,0.0,0.0,85,0.00,CLR,OVC,0.00,WeatherDisplay:10.37,2013-01-09 12:15:00,
2013-01-09 07:20:00,36.5,32.4,30.39,West,259,0.0,0.0,85,0.00,CLR,OVC,0.00,WeatherDisplay:10.37,2013-01-09 12:20:00,
2013-01-09 07:25:00,36.5,32.4,30.39,West,259,0.0,0.0,85,0.00,CLR,OVC,0.00,WeatherDisplay:10.37,2013-01-09 12:25:00,
2013-01-09 07:30:00,36.5,32.4,30.39,West,259,0.0,0.0,85,0.00,CLR,OVC,0.00,WeatherDisplay:10.37,2013-01-09 12:30:00,
2013-01-09 07:35:00,36.3,32.2,30.39,West,259,0.0,0.0,85,0.00,CLR,OVC,0.00,WeatherDisplay:10.37,2013-01-09 12:35:00,
2013-01-09 07:40:00,36.5,32.4,30.39,West,259,0.0,0.0,85,0.00,CLR,OVC,0.00,WeatherDisplay:10.37,2013-01-09 12:40:00,
2013-01-09 07:45:00,36.5,32.4,30.39,West,259,0.0,0.0,85,0.00,CLR,OVC,0.00,WeatherDisplay:10.37,2013-01-09 12:45:00,
2013-01-09 07:50:00,36.5,32.7,30.39,West,260,0.0,0.0,86,0.00,CLR,OVC,0.00,WeatherDisplay:10.37,2013-01-09 12:50:00,
2013-01-09 07:55:00,36.7,32.9,30.39,West,259,0.0,0.0,86,0.00,CLR,OVC,0.00,WeatherDisplay:10.37,2013-01-09 12:55:00,
2013-01-09 08:00:00,36.9,33.1,30.39,West,259,0.0,0.0,86,0.00,CLR,OVC,0.00,WeatherDisplay:10.37,2013-01-09 13:00:00,
2013-01-09 08:05:00,36.9,33.1,30.39,West,259,0.0,0.0,86,0.00,CLR,OVC,0.00,WeatherDisplay:10.37,2013-01-09 13:05:00,
2013-01-09 08:10:00,37.0,33.2,30.39,West,259,0.0,0.0,86,0.00,CLR,OVC,0.00,WeatherDisplay:10.37,2013-01-09 13:10:00,
2013-01-09 08:20:00,37.0,33.5,30.39,West,259,0.0,0.0,87,0.00,CLR,OVC,0.00,WeatherDisplay:10.37,2013-01-09 13:20:00,
2013-01-09 08:25:00,37.2,33.7,30.39,West,259,0.0,0.0,87,0.00,CLR,OVC,0.00,WeatherDisplay:10.37,2013-01-09 13:25:00,
2013-01-09 08:30:00,37.4,33.9,30.39,West,259,0.0,0.0,87,0.00,CLR,OVC,0.00,WeatherDisplay:10.37,2013-01-09 13:30:00,
2013-01-09 08:35:00,37.6,34.1,30.42,West,259,0.0,0.0,87,0.00,CLR,OVC,0.00,WeatherDisplay:10.37,2013-01-09 13:35:00,
2013-01-09 08:40:00,37.9,34.4,30.42,West,259,0.0,0.0,87,0.00,CLR,OVC,0.00,WeatherDisplay:10.37,2013-01-09 13:40:00,
2013-01-09 08:45:00,38.3,34.8,30.42,West,259,0.0,0.0,87,0.00,CLR,OVC,0.00,WeatherDisplay:10.37,2013-01-09 13:45:00,
2013-01-09 08:50:00,39.0,35.5,30.42,West,260,0.0,0.0,87,0.00,CLR,OVC,0.00,WeatherDisplay:10.37,2013-01-09 13:50:00,
2013-01-09 09:00:00,40.8,37.5,30.42,West,265,0.0,0.0,88,0.00,CLR,OVC,0.00,WeatherDisplay:10.37,2013-01-09 14:00:00,
2013-01-09 09:05:00,41.7,38.4,30.42,West,269,0.0,0.0,88,0.00,CLR,OVC,0.00,WeatherDisplay:10.37,2013-01-09 14:05:00,
2013-01-09 09:10:00,42.3,39.0,30.42,West,269,0.0,0.0,88,0.00,CLR,OVC,0.00,WeatherDisplay:10.37,2013-01-09 14:10:00,
2013-01-09 09:20:00,43.5,40.5,30.42,NW,315,0.0,0.0,89,0.00,CLR,OVC,0.00,WeatherDisplay:10.37,2013-01-09 14:20:00,
2013-01-09 09:25:00,44.4,41.4,30.42,NNE,25,0.0,0.0,89,0.00,CLR,OVC,0.00,WeatherDisplay:10.37,2013-01-09 14:25:00,
2013-01-09 09:30:00,45.4,42.3,30.42,ENE,64,0.0,0.0,89,0.00,CLR,OVC,0.00,WeatherDisplay:10.37,2013-01-09 14:30:00,
2013-01-09 09:40:00,47.4,44.3,30.42,NNW,342,0.0,0.0,89,0.00,CLR,OVC,0.00,WeatherDisplay:10.37,2013-01-09 14:40:00,
2013-01-09 09:45:00,48.5,45.4,30.42,NNW,347,0.0,0.0,89,0.00,CLR,OVC,0.00,WeatherDisplay:10.37,2013-01-09 14:45:00,
2013-01-09 09:50:00,49.6,46.5,30.42,NNW,337,0.0,0.0,89,0.00,CLR,OVC,0.00,WeatherDisplay:10.37,2013-01-09 14:50:00,
2013-01-09 09:55:00,50.9,47.7,30.42,NW,315,0.0,0.0,89,0.00,CLR,OVC,0.00,WeatherDisplay:10.37,2013-01-09 14:55:00,
2013-01-09 10:00:00,52.0,48.9,30.42,NW,314,0.0,0.0,89,0.00,CLR,OVC,0.00,WeatherDisplay:10.37,2013-01-09 15:00:00,
2013-01-09 10:10:00,54.3,48.9,30.42,NE,39,0.0,0.0,82,0.00,CLR,OVC,0.00,WeatherDisplay:10.37,2013-01-09 15:10:00,
2013-01-09 10:15:00,55.4,49.0,30.42,NE,55,0.0,3.0,79,0.00,CLR,OVC,0.00,WeatherDisplay:10.37,2013-01-09 15:15:00,
2013-01-09 10:20:00,56.2,48.7,30.42,NE,47,0.0,0.0,76,0.00,CLR,OVC,0.00,WeatherDisplay:10.37,2013-01-09 15:20:00,
2013-01-09 10:30:00,58.0,48.7,30.42,North,2,0.0,0.0,71,0.00,CLR,OVC,0.00,WeatherDisplay:10.37,2013-01-09 15:30:00,
2013-01-09 10:35:00,58.6,48.5,30.44,NNW,333,0.0,0.0,69,0.00,CLR,OVC,0.00,WeatherDisplay:10.37,2013-01-09 15:35:00,
2013-01-09 10:40:00,59.3,47.5,30.44,NNW,332,0.0,0.0,65,0.00,CLR,OVC,0.00,WeatherDisplay:10.37,2013-01-09 15:40:00,
2013-01-09 10:50:00,60.2,44.9,30.44,NNW,347,0.0,0.0,57,0.00,CLR,OVC,0.00,WeatherDisplay:10.37,2013-01-09 15:50:00,
2013-01-09 10:55:00,60.6,43.9,30.44,NNW,332,0.0,0.0,54,0.00,CLR,OVC,0.00,WeatherDisplay:10.37,2013-01-09 15:55:00,
2013-01-09 11:00:00,60.6,43.9,30.44,NW,305,0.0,0.0,54,0.00,CLR,OVC,0.00,WeatherDisplay:10.37,2013-01-09 16:00:00,
2013-01-09 11:05:00,61.0,44.2,30.42,ESE,114,0.0,0.0,54,0.00,CLR,OVC,0.00,WeatherDisplay:10.37,2013-01-09 16:05:00,
2013-01-09 11:10:00,61.2,43.4,30.42,ESE,110,0.0,0.0,52,0.00,CLR,OVC,0.00,WeatherDisplay:10.37,2013-01-09 16:10:00,
2013-01-09 11:20:00,61.2,44.4,30.42,SE,133,0.0,0.0,54,0.00,CLR,OVC,0.00,WeatherDisplay:10.37,2013-01-09 16:20:00,
2013-01-09 11:30:00,61.5,44.2,30.42,SSW,193,3.0,6.0,53,0.00,CLR,OVC,0.00,WeatherDisplay:10.37,2013-01-09 16:30:00,
2013-01-09 11:35:00,62.1,43.2,30.39,SW,214,0.0,7.0,50,0.00,CLR,OVC,0.00,WeatherDisplay:10.37,2013-01-09 16:35:00,
2013-01-09 11:40:00,62.6,43.7,30.39,WSW,241,0.0,5.0,50,0.00,CLR,OVC,0.00,WeatherDisplay:10.37,2013-01-09 16:40:00,
2013-01-09 11:50:00,64.2,45.2,30.39,SW,221,0.0,5.0,50,0.00,CLR,OVC,0.00,WeatherDisplay:10.37,2013-01-09 16:50:00,
2013-01-09 12:00:00,65.3,45.1,30.39,South,187,1.0,6.0,48,0.00,CLR,OVC,0.00,WeatherDisplay:10.37,2013-01-09 17:00:00,
2013-01-09 12:05:00,65.6,45.4,30.39,SW,231,0.0,5.0,48,0.00,CLR,OVC,0.00,WeatherDisplay:10.37,2013-01-09 17:05:00,
2013-01-09 12:10:00,65.8,44.4,30.39,SSE,168,0.0,5.0,46,0.00,CLR,OVC,0.00,WeatherDisplay:10.37,2013-01-09 17:10:00,
2013-01-09 12:20:00,66.2,44.2,30.39,SSE,154,0.0,7.0,45,0.00,CLR,OVC,0.00,WeatherDisplay:10.37,2013-01-09 17:20:00,
2013-01-09 12:30:00,66.8,44.1,30.39,WNW,288,0.0,6.0,44,0.00,CLR,OVC,0.00,WeatherDisplay:10.37,2013-01-09 17:30:00,
2013-01-09 12:40:00,67.5,44.8,30.36,WNW,282,0.0,0.0,44,0.00,CLR,OVC,0.00,WeatherDisplay:10.37,2013-01-09 17:40:00,
2013-01-09 12:45:00,67.8,45.1,30.36,West,280,0.0,0.0,44,0.00,CLR,OVC,0.00,WeatherDisplay:10.37,2013-01-09 17:45:00,
2013-01-09 12:50:00,68.0,44.7,30.36,West,268,0.0,0.0,43,0.00,CLR,OVC,0.00,WeatherDisplay:10.37,2013-01-09 17:50:00,
2013-01-09 12:55:00,68.4,45.0,30.36,WSW,251,0.0,0.0,43,0.00,CLR,OVC,0.00,WeatherDisplay:10.37,2013-01-09 17:55:00,
2013-01-09 13:00:00,68.7,44.7,30.36,WSW,247,0.0,0.0,42,0.00,CLR,OVC,0.00,WeatherDisplay:10.37,2013-01-09 18:00:00,
2013-01-09 13:05:00,69.1,44.4,30.36,West,276,0.0,0.0,41,0.00,CLR,OVC,0.00,WeatherDisplay:10.37,2013-01-09 18:05:00,
2013-01-09 13:10:00,69.1,43.7,30.36,WNW,293,0.0,0.0,40,0.00,CLR,OVC,0.00,WeatherDisplay:10.37,2013-01-09 18:10:00,
2013-01-09 13:20:00,68.7,42.8,30.36,SW,221,3.0,5.0,39,0.00,CLR,OVC,0.00,WeatherDisplay:10.37,2013-01-09 18:20:00,
2013-01-09 13:25:00,68.5,43.2,30.36,SW,223,0.0,0.0,40,0.00,CLR,OVC,0.00,WeatherDisplay:10.37,2013-01-09 18:25:00,
2013-01-09 13:30:00,68.5,44.5,30.36,WSW,239,0.0,0.0,42,0.00,CLR,OVC,0.00,WeatherDisplay:10.37,2013-01-09 18:30:00,
2013-01-09 13:35:00,68.4,45.0,30.36,WSW,255,0.0,0.0,43,0.00,CLR,OVC,0.00,WeatherDisplay:10.37,2013-01-09 18:35:00,
2013-01-09 13:40:00,68.4,45.0,30.36,West,280,0.0,5.0,43,0.00,CLR,OVC,0.00,WeatherDisplay:10.37,2013-01-09 18:40:00,
2013-01-09 13:45:00,67.9,44.5,30.36,WNW,301,3.0,7.0,43,0.00,CLR,OVC,0.00,WeatherDisplay:10.37,2013-01-09 18:45:00,
2013-01-09 13:50:00,67.5,44.2,30.36,NW,310,2.0,6.0,43,0.00,CLR,OVC,0.00,WeatherDisplay:10.37,2013-01-09 18:50:00,
2013-01-09 13:55:00,67.3,44.0,30.36,NW,313,0.0,0.0,43,0.00,CLR,OVC,0.00,WeatherDisplay:10.37,2013-01-09 18:55:00,
2013-01-09 14:00:00,67.3,44.6,30.36,NW,316,0.0,6.0,44,0.00,CLR,OVC,0.00,WeatherDisplay:10.37,2013-01-09 19:00:00,
2013-01-09 14:10:00,67.3,44.6,30.36,WNW,288,0.0,0.0,44,0.00,CLR,OVC,0.00,WeatherDisplay:10.37,2013-01-09 19:10:00,
2013-01-09 14:20:00,67.1,44.4,30.36,NNW,328,0.0,5.0,44,0.00,CLR,OVC,0.00,WeatherDisplay:10.37,2013-01-09 19:20:00,
2013-01-09 14:30:00,67.1,44.4,30.36,NNW,340,0.0,0.0,44,0.00,CLR,OVC,0.00,WeatherDisplay:10.37,2013-01-09 19:30:00,
2013-01-09 14:35:00,67.1,43.8,30.36,NW,314,0.0,0.0,43,0.00,CLR,OVC,0.00,WeatherDisplay:10.37,2013-01-09 19:35:00,
2013-01-09 14:40:00,67.1,44.4,30.36,NW,305,0.0,0.0,44,0.00,CLR,OVC,0.00,WeatherDisplay:10.37,2013-01-09 19:40:00,
2013-01-09 14:50:00,66.9,43.7,30.36,NNW,331,0.0,0.0,43,0.00,CLR,OVC,0.00,WeatherDisplay:10.37,2013-01-09 19:50:00,
2013-01-09 14:55:00,66.7,44.1,30.36,NNW,330,0.0,0.0,44,0.00,CLR,OVC,0.00,WeatherDisplay:10.37,2013-01-09 19:55:00,
2013-01-09 15:05:00,66.7,44.1,30.36,NNW,331,0.0,0.0,44,0.00,CLR,OVC,0.00,WeatherDisplay:10.37,2013-01-09 20:05:00,
2013-01-09 15:10:00,66.7,44.1,30.36,NNW,331,0.0,0.0,44,0.00,CLR,OVC,0.00,WeatherDisplay:10.37,2013-01-09 20:10:00,
2013-01-09 15:15:00,66.7,44.1,30.36,NNW,328,0.0,0.0,44,0.00,CLR,OVC,0.00,WeatherDisplay:10.37,2013-01-09 20:15:00,
2013-01-09 15:20:00,66.7,44.1,30.36,NW,324,0.0,0.0,44,0.00,CLR,OVC,0.00,WeatherDisplay:10.37,2013-01-09 20:20:00,
2013-01-09 15:25:00,66.7,44.1,30.36,NW,323,0.0,0.0,44,0.00,CLR,OVC,0.00,WeatherDisplay:10.37,2013-01-09 20:25:00,
2013-01-09 15:30:00,66.6,44.0,30.36,NNW,327,0.0,0.0,44,0.00,CLR,OVC,0.00,WeatherDisplay:10.37,2013-01-09 20:30:00,
2013-01-09 15:40:00,66.3,43.8,30.36,NNW,330,0.0,0.0,44,0.00,CLR,OVC,0.00,WeatherDisplay:10.37,2013-01-09 20:40:00,
2013-01-09 15:45:00,66.0,44.1,30.36,NNW,330,0.0,0.0,45,0.00,CLR,OVC,0.00,WeatherDisplay:10.37,2013-01-09 20:45:00,
2013-01-09 15:50:00,65.8,44.5,30.36,NNW,330,0.0,0.0,46,0.00,CLR,OVC,0.00,WeatherDisplay:10.37,2013-01-09 20:50:00,
2013-01-09 16:00:00,65.3,44.0,30.36,NNW,330,0.0,0.0,46,0.00,CLR,OVC,0.00,WeatherDisplay:10.37,2013-01-09 21:00:00,
2013-01-09 16:05:00,65.0,44.3,30.36,NNW,330,0.0,0.0,47,0.00,CLR,OVC,0.00,WeatherDisplay:10.37,2013-01-09 21:05:00,
2013-01-09 16:10:00,64.8,44.6,30.36,NNW,330,0.0,0.0,48,0.00,CLR,OVC,0.00,WeatherDisplay:10.37,2013-01-09 21:10:00,
2013-01-09 16:15:00,64.6,45.0,30.36,NNW,330,0.0,0.0,49,0.00,CLR,OVC,0.00,WeatherDisplay:10.37,2013-01-09 21:15:00,
2013-01-09 16:20:00,64.3,44.7,30.36,NNW,330,0.0,0.0,49,0.00,CLR,OVC,0.00,WeatherDisplay:10.37,2013-01-09 21:20:00,
2013-01-09 16:30:00,63.8,44.8,30.36,NNW,330,0.0,0.0,50,0.00,CLR,OVC,0.00,WeatherDisplay:10.37,2013-01-09 21:30:00,
2013-01-09 16:40:00,63.1,45.2,30.36,NNW,330,0.0,0.0,52,0.00,CLR,OVC,0.00,WeatherDisplay:10.37,2013-01-09 21:40:00,
2013-01-09 16:50:00,62.8,45.4,30.36,NNW,330,0.0,0.0,53,0.00,CLR,OVC,0.00,WeatherDisplay:10.37,2013-01-09 21:50:00,
2013-01-09 16:55:00,62.6,45.7,30.36,NNW,330,0.0,0.0,54,0.00,CLR,OVC,0.00,WeatherDisplay:10.37,2013-01-09 21:55:00,
2013-01-09 17:05:00,62.4,45.5,30.36,NNW,330,0.0,0.0,54,0.00,CLR,OVC,0.00,WeatherDisplay:10.37,2013-01-09 22:05:00,
2013-01-09 17:10:00,62.4,45.5,30.36,NNW,330,0.0,0.0,54,0.00,CLR,OVC,0.00,WeatherDisplay:10.37,2013-01-09 22:10:00,
2013-01-09 17:15:00,62.2,45.3,30.36,NNW,330,0.0,0.0,54,0.00,CLR,OVC,0.00,WeatherDisplay:10.37,2013-01-09 22:15:00,
2013-01-09 17:20:00,62.0,45.6,30.36,NNW,330,0.0,0.0,55,0.00,CLR,OVC,0.00,WeatherDisplay:10.37,2013-01-09 22:20:00,
2013-01-09 17:30:00,61.5,45.7,30.36,NNW,330,0.0,0.0,56,0.00,CLR,OVC,0.00,WeatherDisplay:10.37,2013-01-09 22:30:00,
2013-01-09 17:40:00,61.0,45.7,30.36,NNW,330,0.0,0.0,57,0.00,CLR,OVC,0.00,WeatherDisplay:10.37,2013-01-09 22:40:00,
2013-01-09 17:50:00,60.6,45.8,30.36,NNW,330,0.0,0.0,58,0.00,CLR,OVC,0.00,WeatherDisplay:10.37,2013-01-09 22:50:00,
2013-01-09 18:00:00,60.1,45.7,30.36,NNW,330,0.0,0.0,59,0.00,CLR,OVC,0.00,WeatherDisplay:10.37,2013-01-09 23:00:00,
2013-01-09 18:05:00,59.9,45.5,30.36,NNW,330,0.0,0.0,59,0.00,CLR,OVC,0.00,WeatherDisplay:10.37,2013-01-09 23:05:00,
2013-01-09 18:10:00,59.7,45.8,30.36,NNW,330,0.0,0.0,60,0.00,CLR,OVC,0.00,WeatherDisplay:10.37,2013-01-09 23:10:00,
2013-01-09 18:20:00,59.1,45.6,30.36,NNW,330,0.0,0.0,61,0.00,CLR,OVC,0.00,WeatherDisplay:10.37,2013-01-09 23:20:00,
2013-01-09 18:30:00,58.4,45.5,30.36,NNW,330,0.0,0.0,62,0.00,CLR,OVC,0.00,WeatherDisplay:10.37,2013-01-09 23:30:00,
2013-01-09 18:40:00,58.1,45.6,30.39,NNW,330,0.0,0.0,63,0.00,CLR,OVC,0.00,WeatherDisplay:10.37,2013-01-09 23:40:00,
2013-01-09 18:50:00,57.8,45.7,30.36,NNW,330,0.0,0.0,64,0.00,CLR,OVC,0.00,WeatherDisplay:10.37,2013-01-09 23:50:00,
2013-01-09 19:00:00,57.6,45.9,30.36,NNW,330,0.0,0.0,65,0.00,CLR,OVC,0.00,WeatherDisplay:10.37,2013-01-10 00:00:00,
2013-01-09 19:05:00,57.4,45.7,30.36,NNW,330,0.0,0.0,65,0.00,CLR,OVC,0.00,WeatherDisplay:10.37,2013-01-10 00:05:00,
2013-01-09 19:10:00,57.4,46.1,30.36,NNW,330,0.0,0.0,66,0.00,CLR,OVC,0.00,WeatherDisplay:10.37,2013-01-10 00:10:00,
2013-01-09 19:20:00,57.0,45.8,30.36,NNW,330,0.0,0.0,66,0.00,CLR,OVC,0.00,WeatherDisplay:10.37,2013-01-10 00:20:00,
2013-01-09 19:25:00,56.8,46.0,30.36,NNW,330,0.0,0.0,67,0.00,CLR,OVC,0.00,WeatherDisplay:10.37,2013-01-10 00:25:00,
2013-01-09 19:30:00,56.7,45.8,30.36,NNW,330,0.0,0.0,67,0.00,CLR,OVC,0.00,WeatherDisplay:10.37,2013-01-10 00:30:00,
2013-01-09 19:40:00,56.5,46.0,30.36,NNW,330,0.0,0.0,68,0.00,CLR,OVC,0.00,WeatherDisplay:10.37,2013-01-10 00:40:00,
2013-01-09 19:45:00,56.3,45.9,30.36,NNW,330,0.0,0.0,68,0.00,CLR,OVC,0.00,WeatherDisplay:10.37,2013-01-10 00:45:00,
2013-01-09 19:50:00,56.3,45.9,30.36,NNW,330,0.0,0.0,68,0.00,CLR,OVC,0.00,WeatherDisplay:10.37,2013-01-10 00:50:00,
2013-01-09 20:00:00,55.9,45.9,30.36,NNW,330,0.0,0.0,69,0.00,CLR,OVC,0.00,WeatherDisplay:10.37,2013-01-10 01:00:00,
2013-01-09 20:05:00,55.8,45.8,30.36,NNW,330,0.0,0.0,69,0.00,CLR,OVC,0.00,WeatherDisplay:10.37,2013-01-10 01:05:00,
2013-01-09 20:10:00,55.7,46.1,30.36,NNW,330,0.0,0.0,70,0.00,CLR,OVC,0.00,WeatherDisplay:10.37,2013-01-10 01:10:00,
2013-01-09 20:20:00,55.2,45.6,30.36,NNW,330,0.0,0.0,70,0.00,CLR,OVC,0.00,WeatherDisplay:10.37,2013-01-10 01:20:00,
2013-01-09 20:30:00,54.9,45.6,30.36,NNW,330,0.0,0.0,71,0.00,CLR,OVC,0.00,WeatherDisplay:10.37,2013-01-10 01:30:00,
2013-01-09 20:40:00,54.5,45.3,30.36,NNW,330,0.0,0.0,71,0.00,CLR,OVC,0.00,WeatherDisplay:10.37,2013-01-10 01:40:00,
2013-01-09 20:50:00,54.3,45.5,30.36,NNW,330,0.0,0.0,72,0.00,CLR,OVC,0.00,WeatherDisplay:10.37,2013-01-10 01:50:00,
2013-01-09 20:55:00,54.1,45.3,30.36,NNW,330,0.0,0.0,72,0.00,CLR,OVC,0.00,WeatherDisplay:10.37,2013-01-10 01:55:00,
2013-01-09 21:05:00,54.0,45.5,30.36,NNW,330,0.0,0.0,73,0.00,CLR,OVC,0.00,WeatherDisplay:10.37,2013-01-10 02:05:00,
2013-01-09 21:10:00,54.0,45.5,30.36,NNW,330,0.0,0.0,73,0.00,CLR,OVC,0.00,WeatherDisplay:10.37,2013-01-10 02:10:00,
2013-01-09 21:20:00,53.8,45.7,30.39,NNW,330,0.0,0.0,74,0.00,CLR,OVC,0.00,WeatherDisplay:10.37,2013-01-10 02:20:00,
2013-01-09 21:30:00,53.7,45.6,30.39,NNW,330,0.0,0.0,74,0.00,CLR,OVC,0.00,WeatherDisplay:10.37,2013-01-10 02:30:00,
2013-01-09 21:40:00,54.0,46.2,30.39,NNW,330,0.0,0.0,75,0.00,CLR,OVC,0.00,WeatherDisplay:10.37,2013-01-10 02:40:00,
2013-01-09 21:45:00,54.2,46.4,30.39,NNW,332,0.0,0.0,75,0.00,CLR,OVC,0.00,WeatherDisplay:10.37,2013-01-10 02:45:00,
2013-01-09 21:50:00,54.5,46.7,30.39,NNW,333,0.0,0.0,75,0.00,CLR,OVC,0.00,WeatherDisplay:10.37,2013-01-10 02:50:00,
2013-01-09 21:55:00,54.9,47.1,30.39,NNW,333,0.0,0.0,75,0.00,CLR,OVC,0.00,WeatherDisplay:10.37,2013-01-10 02:55:00,
2013-01-09 22:00:00,55.0,46.9,30.39,NNW,333,0.0,0.0,74,0.00,CLR,OVC,0.00,WeatherDisplay:10.37,2013-01-10 03:00:00,
2013-01-09 22:05:00,55.0,46.9,30.39,NNW,333,0.0,0.0,74,0.00,CLR,OVC,0.00,WeatherDisplay:10.37,2013-01-10 03:05:00,
2013-01-09 22:10:00,55.0,46.9,30.39,NNW,338,0.0,0.0,74,0.00,CLR,OVC,0.00,WeatherDisplay:10.37,2013-01-10 03:10:00,
2013-01-09 22:20:00,55.4,46.9,30.39,North,1,0.0,0.0,73,0.00,CLR,OVC,0.00,WeatherDisplay:10.37,2013-01-10 03:20:00,
2013-01-09 22:25:00,55.4,46.9,30.39,North,353,0.0,0.0,73,0.00,CLR,OVC,0.00,WeatherDisplay:10.37,2013-01-10 03:25:00,
2013-01-09 22:30:00,55.4,46.8,30.39,North,353,0.0,0.0,73,0.00,CLR,OVC,0.00,WeatherDisplay:10.37,2013-01-10 03:30:00,
2013-01-09 22:40:00,55.0,46.2,30.39,North,353,0.0,0.0,72,0.00,CLR,OVC,0.00,WeatherDisplay:10.37,2013-01-10 03:40:00,
2013-01-09 22:50:00,54.9,46.4,30.39,North,353,0.0,0.0,73,0.00,CLR,OVC,0.00,WeatherDisplay:10.37,2013-01-10 03:50:00,
2013-01-09 22:55:00,54.9,46.4,30.39,North,353,0.0,0.0,73,0.00,CLR,OVC,0.00,WeatherDisplay:10.37,2013-01-10 03:55:00,
2013-01-09 23:00:00,54.7,46.2,30.39,North,353,0.0,0.0,73,0.00,CLR,OVC,0.00,WeatherDisplay:10.37,2013-01-10 04:00:00,
2013-01-09 23:05:00,54.5,46.0,30.42,North,353,0.0,0.0,73,0.00,CLR,OVC,0.00,WeatherDisplay:10.37,2013-01-10 04:05:00,
2013-01-09 23:10:00,54.3,45.8,30.42,North,353,0.0,0.0,73,0.00,CLR,OVC,0.00,WeatherDisplay:10.37,2013-01-10 04:10:00,
2013-01-09 23:20:00,54.0,45.9,30.42,North,353,0.0,0.0,74,0.00,CLR,OVC,0.00,WeatherDisplay:10.37,2013-01-10 04:20:00,
2013-01-09 23:30:00,53.8,45.7,30.42,North,353,0.0,0.0,74,0.00,CLR,OVC,0.00,WeatherDisplay:10.37,2013-01-10 04:30:00,
2013-01-09 23:40:00,53.2,45.2,30.42,North,353,0.0,0.0,74,0.00,CLR,OVC,0.00,WeatherDisplay:10.37,2013-01-10 04:40:00,
2013-01-09 23:50:00,52.9,45.2,30.42,North,353,0.0,0.0,75,0.00,CLR,OVC,0.00,WeatherDisplay:10.37,2013-01-10 04:50:00,